Time;durP1;ratioP1;P1;durP2;ratioP2;P2;SDS_P1;SDS_P2;PMS_P1;PMS_P2;Temp;Humidity;BMP_temperature;BMP_pressure;BME280_temperature;BME280_humidity;BME280_pressure;Samples;Min_cycle;Max_cycle;Signal;HPM_P1;HPM_P2
2021/03/20 00:01:51;;;;;;;24.10;7.45;;;;;;;;;;4995148;28;20068;-79
2021/03/20 00:04:17;;;;;;;29.40;8.98;;;;;;;;;;4994045;28;20029;-80
2021/03/20 00:06:47;;;;;;;15.73;6.88;;;;;;;;;;4993910;28;20065;-83
2021/03/20 00:09:14;;;;;;;18.60;6.47;;;;;;;;;;4994020;28;20026;-79
2021/03/20 00:11:43;;;;;;;16.30;7.40;;;;;;;;;;4993211;28;20086;-80
2021/03/20 00:14:10;;;;;;;18.98;7.32;;;;;;;;;;4994500;28;20023;-80
2021/03/20 00:16:37;;;;;;;18.15;7.28;;;;;;;;;;4994195;28;20037;-79
2021/03/20 00:19:03;;;;;;;20.88;7.40;;;;;;;;;;4997283;28;20023;-81
2021/03/20 00:21:29;;;;;;;25.25;8.00;;;;;;;;;;5000381;28;20027;-83
2021/03/20 00:23:55;;;;;;;22.42;8.35;;;;;;;;;;4996788;28;20010;-80
2021/03/20 00:26:23;;;;;;;20.60;8.35;;;;;;;;;;4993987;28;20058;-82
2021/03/20 00:28:49;;;;;;;20.80;7.50;;;;;;;;;;4993497;28;20117;-83
2021/03/20 00:31:16;;;;;;;24.85;9.00;;;;;;;;;;4993979;28;20026;-79
2021/03/20 00:33:44;;;;;;;26.77;9.13;;;;;;;;;;4993910;28;20399;-81
2021/03/20 00:36:11;;;;;;;28.90;8.82;;;;;;;;;;4993873;28;20035;-80
2021/03/20 00:38:38;;;;;;;21.50;7.30;;;;;;;;;;4996210;28;20080;-82
2021/03/20 00:41:05;;;;;;;22.33;8.55;;;;;;;;;;4999557;28;20069;-80
2021/03/20 00:43:32;;;;;;;23.25;7.60;;;;;;;;;;4999279;28;20109;-82
2021/03/20 00:45:58;;;;;;;22.00;6.85;;;;;;;;;;4998545;28;20105;-81
2021/03/20 00:48:26;;;;;;;16.33;7.45;;;;;;;;;;4999350;28;20411;-82
2021/03/20 00:50:53;;;;;;;22.17;8.13;;;;;;;;;;4996642;28;20426;-81
2021/03/20 00:53:20;;;;;;;21.35;7.32;;;;;;;;;;4999208;28;20066;-81
2021/03/20 00:55:46;;;;;;;18.33;6.55;;;;;;;;;;4998972;28;20022;-81
2021/03/20 00:58:20;;;;;;;21.15;6.28;;;;;;;;;;4997427;28;20117;-81
2021/03/20 01:00:46;;;;;;;;;;;;;;;;;;4997886;28;20038;-81
2021/03/20 01:03:12;;;;;;;23.45;6.40;;;;;;;;;;4996659;28;19906;-81
2021/03/20 01:05:39;;;;;;;17.58;6.88;;;;;;;;;;4998655;28;20038;-81
2021/03/20 01:08:05;;;;;;;20.25;7.25;;;;;;;;;;4998157;28;20475;-79
2021/03/20 01:10:31;;;;;;;21.08;6.50;;;;;;;;;;4996697;28;20100;-82
2021/03/20 01:12:58;;;;;;;18.13;5.40;;;;;;;;;;4996550;28;20038;-80
2021/03/20 01:15:24;;;;;;;16.33;6.38;;;;;;;;;;4997953;28;20022;-80
2021/03/20 01:17:50;;;;;;;16.20;6.47;;;;;;;;;;4996807;28;20056;-81
2021/03/20 01:20:17;;;;;;;16.90;6.43;;;;;;;;;;4997182;28;20027;-80
2021/03/20 01:22:44;;;;;;;16.25;6.70;;;;;;;;;;4996905;28;20078;-80
2021/03/20 01:25:10;;;;;;;20.08;6.55;;;;;;;;;;4996359;28;20113;-80
2021/03/20 01:27:37;;;;;;;18.45;7.85;;;;;;;;;;4996407;28;20043;-79
2021/03/20 01:30:05;;;;;;;19.40;6.50;;;;;;;;;;4996588;28;20037;-80
2021/03/20 01:32:31;;;;;;;14.93;6.53;;;;;;;;;;4997584;28;20042;-78
2021/03/20 01:34:57;;;;;;;21.98;7.00;;;;;;;;;;4996284;28;20493;-80
2021/03/20 01:37:23;;;;;;;20.08;6.85;;;;;;;;;;4996937;28;20081;-82
2021/03/20 01:39:50;;;;;;;14.25;5.45;;;;;;;;;;4997444;28;20026;-81
2021/03/20 01:42:16;;;;;;;14.98;7.03;;;;;;;;;;4996379;28;20034;-79
2021/03/20 01:44:43;;;;;;;18.35;6.57;;;;;;;;;;4996807;28;20058;-81
2021/03/20 01:47:16;;;;;;;15.00;6.47;;;;;;;;;;4997872;28;20038;-80
2021/03/20 01:49:47;;;;;;;20.77;5.93;;;;;;;;;;4995530;28;20026;-80
2021/03/20 01:52:13;;;;;;;13.32;6.38;;;;;;;;;;4996528;28;20043;-80
2021/03/20 01:55:02;;;;;;;19.92;6.30;;;;;;;;;;4996783;28;20061;-80
2021/03/20 01:57:30;;;;;;;14.77;4.57;;;;;;;;;;4995881;28;20027;-80
2021/03/20 01:59:57;;;;;;;13.10;6.28;;;;;;;;;;4995302;28;20395;-81
2021/03/20 02:02:23;;;;;;;13.70;5.60;;;;;;;;;;4998268;28;20023;-83
2021/03/20 02:04:49;;;;;;;16.95;6.20;;;;;;;;;;4995817;28;20032;-82
2021/03/20 02:07:16;;;;;;;19.65;6.57;;;;;;;;;;4995978;28;20049;-79
2021/03/20 02:09:42;;;;;;;19.48;6.68;;;;;;;;;;4996865;28;20026;-81
2021/03/20 02:12:11;;;;;;;19.33;5.88;;;;;;;;;;4997080;28;20044;-80
2021/03/20 02:14:43;;;;;;;21.50;7.03;;;;;;;;;;4995682;28;20031;-80
2021/03/20 02:17:18;;;;;;;24.70;6.97;;;;;;;;;;4994895;28;20394;-80
2021/03/20 02:20:15;;;;;;;19.80;7.20;;;;;;;;;;4995071;28;20030;-80
2021/03/20 02:23:00;;;;;;;13.18;6.40;;;;;;;;;;4980770;28;20062;-80
2021/03/20 02:25:46;;;;;;;13.75;6.75;;;;;;;;;;4995645;28;20447;-79
2021/03/20 02:28:31;;;;;;;24.63;7.05;;;;;;;;;;4996177;28;20033;-80
2021/03/20 02:31:05;;;;;;;19.45;7.45;;;;;;;;;;4995553;28;20494;-80
2021/03/20 02:33:37;;;;;;;17.90;7.05;;;;;;;;;;4995130;28;20046;-80
2021/03/20 02:36:03;;;;;;;17.98;7.65;;;;;;;;;;4995469;28;20030;-79
2021/03/20 02:38:52;;;;;;;19.63;7.03;;;;;;;;;;4995592;28;20022;-80
2021/03/20 02:41:45;;;;;;;18.80;7.38;;;;;;;;;;4985296;28;20030;-80
2021/03/20 02:44:16;;;;;;;15.90;7.22;;;;;;;;;;4995550;28;20379;-80
2021/03/20 02:46:50;;;;;;;16.60;6.40;;;;;;;;;;4995570;28;20034;-80
2021/03/20 02:49:22;;;;;;;17.20;7.50;;;;;;;;;;4994878;28;20022;-79
2021/03/20 02:51:48;;;;;;;16.48;6.13;;;;;;;;;;4995088;28;20487;-80
2021/03/20 02:54:22;;;;;;;20.05;8.13;;;;;;;;;;4994835;28;20042;-83
2021/03/20 02:56:54;;;;;;;28.77;7.63;;;;;;;;;;4997612;28;20030;-80
2021/03/20 02:59:25;;;;;;;17.42;7.53;;;;;;;;;;4998376;28;20085;-80
2021/03/20 03:01:52;;;;;;;19.73;7.22;;;;;;;;;;4998054;28;20058;-80
2021/03/20 03:04:21;;;;;;;15.40;6.30;;;;;;;;;;5000669;28;20379;-80
2021/03/20 03:06:49;;;;;;;21.10;8.32;;;;;;;;;;4995926;28;20030;-80
2021/03/20 03:09:19;;;;;;;27.67;7.20;;;;;;;;;;4994443;28;20057;-80
2021/03/20 03:11:52;;;;;;;19.25;7.20;;;;;;;;;;4995369;28;20051;-80
2021/03/20 03:14:26;;;;;;;15.02;5.70;;;;;;;;;;4996159;28;20041;-80
2021/03/20 03:16:54;;;;;;;18.35;6.68;;;;;;;;;;4995075;28;20045;-80
2021/03/20 03:19:24;;;;;;;18.00;7.15;;;;;;;;;;4994302;28;20026;-80
2021/03/20 03:21:52;;;;;;;18.08;7.10;;;;;;;;;;4994445;28;20033;-81
2021/03/20 03:24:21;;;;;;;22.45;7.90;;;;;;;;;;4994095;28;20092;-80
2021/03/20 03:26:50;;;;;;;19.25;8.23;;;;;;;;;;4994823;28;20034;-80
2021/03/20 03:29:18;;;;;;;23.27;7.93;;;;;;;;;;4994186;28;20064;-80
2021/03/20 03:31:57;;;;;;;16.95;6.80;;;;;;;;;;4994306;28;20403;-80
2021/03/20 03:34:49;;;;;;;19.70;8.27;;;;;;;;;;4994330;28;20117;-80
2021/03/20 03:37:21;;;;;;;18.92;7.53;;;;;;;;;;4964921;28;20093;-80
2021/03/20 03:39:55;;;;;;;25.55;7.70;;;;;;;;;;4994152;28;20077;-79
2021/03/20 03:42:22;;;;;;;18.75;7.90;;;;;;;;;;4993925;28;20539;-80
2021/03/20 03:44:50;;;;;;;18.85;8.13;;;;;;;;;;4995276;28;20061;-79
2021/03/20 03:47:18;;;;;;;19.27;7.18;;;;;;;;;;4995072;28;20026;-80
2021/03/20 03:49:44;;;;;;;19.17;8.18;;;;;;;;;;4993926;28;20033;-80
2021/03/20 03:52:12;;;;;;;21.08;7.68;;;;;;;;;;4995385;28;20034;-78
2021/03/20 03:54:38;;;;;;;20.77;7.55;;;;;;;;;;4993996;28;20030;-80
2021/03/20 03:57:20;;;;;;;23.02;9.02;;;;;;;;;;4994194;28;20030;-80
2021/03/20 04:00:16;;;;;;;18.08;6.97;;;;;;;;;;4994435;28;20026;-81
2021/03/20 04:03:01;;;;;;;20.20;8.73;;;;;;;;;;4978391;28;20480;-82
2021/03/20 04:05:30;;;;;;;22.85;8.27;;;;;;;;;;4995300;28;20030;-79
2021/03/20 04:08:02;;;;;;;19.73;8.18;;;;;;;;;;4994155;28;20033;-84
2021/03/20 04:10:34;;;;;;;17.35;7.22;;;;;;;;;;4994370;28;20050;-80
2021/03/20 04:13:19;;;;;;;19.77;8.98;;;;;;;;;;4996240;28;20039;-81
2021/03/20 04:15:45;;;;;;;19.52;8.18;;;;;;;;;;4997976;28;20030;-85
2021/03/20 04:18:23;;;;;;;23.45;8.73;;;;;;;;;;5000072;28;20029;-81
2021/03/20 04:21:18;;;;;;;17.83;7.97;;;;;;;;;;4997860;28;20030;-84
2021/03/20 04:23:54;;;;;;;18.95;7.15;;;;;;;;;;4999070;28;20026;-85
2021/03/20 04:26:28;;;;;;;21.75;8.63;;;;;;;;;;4997581;28;20048;-80
2021/03/20 04:28:56;;;;;;;19.45;7.43;;;;;;;;;;4997380;28;20133;-79
2021/03/20 04:31:32;;;;;;;22.17;8.57;;;;;;;;;;4998592;28;20106;-82
2021/03/20 04:34:04;;;;;;;25.05;8.52;;;;;;;;;;4997733;28;20038;-85
2021/03/20 04:36:38;;;;;;;16.60;7.25;;;;;;;;;;4997103;28;20427;-79
2021/03/20 04:39:05;;;;;;;18.65;7.20;;;;;;;;;;4997045;28;20088;-85
2021/03/20 04:41:32;;;;;;;22.00;8.35;;;;;;;;;;4997567;28;20062;-78
2021/03/20 04:43:58;;;;;;;18.20;8.65;;;;;;;;;;4996876;28;20092;-81
2021/03/20 04:46:28;;;;;;;22.67;8.13;;;;;;;;;;4997890;28;20034;-79
2021/03/20 04:49:21;;;;;;;21.67;7.60;;;;;;;;;;5001183;28;20168;-80
2021/03/20 04:51:52;;;;;;;16.73;6.20;;;;;;;;;;4960692;28;20197;-80
2021/03/20 04:54:19;;;;;;;23.33;8.02;;;;;;;;;;4998461;28;20030;-79
2021/03/20 04:56:57;;;;;;;15.15;6.15;;;;;;;;;;4998979;28;20027;-85
2021/03/20 04:59:41;;;;;;;16.45;7.88;;;;;;;;;;4998621;28;20053;-85
2021/03/20 05:02:34;;;;;;;18.05;7.10;;;;;;;;;;4997901;28;20034;-85
2021/03/20 05:05:04;;;;;;;15.40;6.35;;;;;;;;;;4992731;28;20038;-85
2021/03/20 05:07:32;;;;;;;19.73;7.03;;;;;;;;;;4997111;28;20034;-85
2021/03/20 05:09:59;;;;;;;14.98;6.13;;;;;;;;;;4997606;28;20133;-83
2021/03/20 05:12:27;;;;;;;22.52;7.53;;;;;;;;;;4997068;28;20037;-81
2021/03/20 05:14:57;;;;;;;19.02;7.70;;;;;;;;;;4996607;28;20121;-81
2021/03/20 05:17:24;;;;;;;18.83;7.35;;;;;;;;;;4996459;28;20509;-80
2021/03/20 05:19:50;;;;;;;16.73;6.68;;;;;;;;;;4997829;28;20027;-79
2021/03/20 05:22:30;;;;;;;19.63;8.00;;;;;;;;;;4998164;28;20026;-82
2021/03/20 05:24:57;;;;;;;22.73;7.88;;;;;;;;;;4994843;28;20456;-80
2021/03/20 05:27:25;;;;;;;20.98;8.02;;;;;;;;;;4998462;28;20081;-80
2021/03/20 05:29:52;;;;;;;21.00;8.13;;;;;;;;;;4997341;28;20034;-78
2021/03/20 05:32:22;;;;;;;18.45;7.03;;;;;;;;;;4996678;28;20462;-80
2021/03/20 05:34:49;;;;;;;20.15;7.75;;;;;;;;;;4997023;28;20022;-80
2021/03/20 05:37:21;;;;;;;20.92;7.63;;;;;;;;;;4997875;28;20109;-84
2021/03/20 05:39:47;;;;;;;16.33;7.13;;;;;;;;;;4996061;28;20121;-81
2021/03/20 05:42:30;;;;;;;25.30;8.05;;;;;;;;;;4995323;28;20109;-84
2021/03/20 05:45:04;;;;;;;16.20;6.57;;;;;;;;;;4997815;28;20022;-80
2021/03/20 05:47:43;;;;;;;16.90;5.80;;;;;;;;;;4997186;28;20464;-83
2021/03/20 05:50:27;;;;;;;16.90;6.55;;;;;;;;;;4995937;28;20046;-80
2021/03/20 05:52:54;;;;;;;15.93;6.68;;;;;;;;;;4996939;28;20041;-78
2021/03/20 05:55:26;;;;;;;16.30;6.55;;;;;;;;;;4996469;28;20080;-82
2021/03/20 05:58:10;;;;;;;12.95;6.43;;;;;;;;;;4995691;28;20026;-82
2021/03/20 06:00:38;;;;;;;13.10;5.55;;;;;;;;;;4995404;28;20030;-80
2021/03/20 06:03:23;;;;;;;12.90;5.78;;;;;;;;;;4997438;28;20222;-80
2021/03/20 06:06:15;;;;;;;16.25;6.30;;;;;;;;;;4995659;28;20314;-80
2021/03/20 06:09:00;;;;;;;14.68;6.03;;;;;;;;;;4974326;28;20066;-78
2021/03/20 06:11:35;;;;;;;12.40;6.18;;;;;;;;;;4995301;28;20559;-80
2021/03/20 06:14:01;;;;;;;12.45;5.80;;;;;;;;;;4995271;28;20401;-80
2021/03/20 06:16:33;;;;;;;11.43;5.55;;;;;;;;;;4994753;28;20029;-80
2021/03/20 06:19:18;;;;;;;11.50;5.82;;;;;;;;;;4995736;28;20030;-80
2021/03/20 06:21:44;;;;;;;15.30;6.72;;;;;;;;;;4995055;28;20026;-83
2021/03/20 06:24:21;;;;;;;12.68;5.95;;;;;;;;;;4995933;28;20026;-83
2021/03/20 06:26:48;;;;;;;12.48;7.75;;;;;;;;;;4995658;28;20124;-83
2021/03/20 06:29:33;;;;;;;24.63;13.05;;;;;;;;;;4995639;28;20036;-83
2021/03/20 06:32:05;;;;;;;10.50;5.50;;;;;;;;;;4996462;28;20039;-81
2021/03/20 06:34:51;;;;;;;14.00;6.10;;;;;;;;;;4995502;28;20034;-83
2021/03/20 06:37:31;;;;;;;12.98;6.90;;;;;;;;;;4996360;28;20026;-81
2021/03/20 06:40:16;;;;;;;13.18;7.03;;;;;;;;;;4996809;28;20022;-80
2021/03/20 06:42:43;;;;;;;12.75;6.32;;;;;;;;;;4997071;28;20025;-81
2021/03/20 06:45:13;;;;;;;12.10;5.72;;;;;;;;;;4996856;28;20022;-80
2021/03/20 06:47:40;;;;;;;14.68;7.97;;;;;;;;;;4996793;28;20030;-79
2021/03/20 06:50:06;;;;;;;11.98;5.93;;;;;;;;;;4996784;28;20054;-80
2021/03/20 06:52:34;;;;;;;12.32;7.45;;;;;;;;;;4996560;28;20443;-78
2021/03/20 06:55:01;;;;;;;14.27;5.05;;;;;;;;;;4996388;28;20033;-77
2021/03/20 06:57:28;;;;;;;11.63;5.45;;;;;;;;;;4996149;28;20032;-90
2021/03/20 06:59:54;;;;;;;10.65;5.85;;;;;;;;;;4995626;28;20054;-80
2021/03/20 07:02:30;;;;;;;10.80;5.70;;;;;;;;;;4996494;28;20498;-80
2021/03/20 07:04:59;;;;;;;11.30;5.30;;;;;;;;;;4995031;28;20113;-81
2021/03/20 07:07:31;;;;;;;11.45;5.28;;;;;;;;;;4994823;28;20549;-80
2021/03/20 07:09:58;;;;;;;6.80;4.32;;;;;;;;;;4993976;28;20137;-78
2021/03/20 07:12:25;;;;;;;8.13;3.78;;;;;;;;;;4994514;28;20455;-79
2021/03/20 07:14:57;;;;;;;11.65;4.65;;;;;;;;;;4996001;28;20101;-78
2021/03/20 07:17:23;;;;;;;8.93;3.35;;;;;;;;;;4995369;28;20031;-77
2021/03/20 07:20:08;;;;;;;10.20;3.83;;;;;;;;;;4993935;28;20108;-76
2021/03/20 07:22:34;;;;;;;14.43;3.30;;;;;;;;;;4994947;28;20058;-76
2021/03/20 07:25:01;;;;;;;6.82;3.22;;;;;;;;;;4995398;28;20030;-79
2021/03/20 07:27:35;;;;;;;6.05;3.22;;;;;;;;;;4996139;28;20476;-79
2021/03/20 07:30:24;;;;;;;8.63;3.88;;;;;;;;;;4994580;28;20041;-79
2021/03/20 07:32:51;;;;;;;7.82;4.30;;;;;;;;;;4995861;28;20049;-81
2021/03/20 07:35:20;;;;;;;7.85;3.58;;;;;;;;;;4995474;28;20026;-81
2021/03/20 07:37:47;;;;;;;7.88;3.40;;;;;;;;;;4995232;28;20105;-79
2021/03/20 07:40:18;;;;;;;5.75;2.97;;;;;;;;;;4995312;28;20030;-80
2021/03/20 07:42:46;;;;;;;6.20;3.10;;;;;;;;;;4994299;28;20486;-80
2021/03/20 07:45:18;;;;;;;8.80;3.50;;;;;;;;;;4994262;28;20030;-78
2021/03/20 07:48:10;;;;;;;6.72;2.85;;;;;;;;;;4994677;28;20058;-79
2021/03/20 07:51:00;;;;;;;6.68;3.30;;;;;;;;;;4973162;28;20042;-83
2021/03/20 07:53:27;;;;;;;8.52;3.25;;;;;;;;;;4988358;28;20062;-80
2021/03/20 07:55:53;;;;;;;6.80;3.38;;;;;;;;;;4994230;28;20026;-83
2021/03/20 07:58:22;;;;;;;7.38;3.28;;;;;;;;;;4993659;28;20117;-79
2021/03/20 08:00:53;;;;;;;6.25;3.30;;;;;;;;;;4995182;28;20034;-81
2021/03/20 08:03:21;;;;;;;5.90;3.03;;;;;;;;;;4995356;28;20026;-82
2021/03/20 08:05:48;;;;;;;6.35;3.50;;;;;;;;;;4995847;28;20384;-78
2021/03/20 08:08:22;;;;;;;6.47;3.10;;;;;;;;;;4994033;28;20034;-80
2021/03/20 08:10:52;;;;;;;6.30;2.95;;;;;;;;;;4993747;28;20042;-84
2021/03/20 08:13:26;;;;;;;6.13;3.00;;;;;;;;;;4995733;28;20057;-83
2021/03/20 08:15:55;;;;;;;6.78;3.25;;;;;;;;;;4994149;28;20054;-82
2021/03/20 08:18:24;;;;;;;7.55;3.20;;;;;;;;;;4994401;28;20030;-79
2021/03/20 08:21:02;;;;;;;6.90;3.38;;;;;;;;;;4993279;28;20434;-77
2021/03/20 08:23:58;;;;;;;6.10;3.22;;;;;;;;;;4994920;28;20049;-77
2021/03/20 08:26:24;;;;;;;6.47;3.10;;;;;;;;;;4977069;28;20096;-77
2021/03/20 08:29:01;;;;;;;10.23;3.92;;;;;;;;;;4993734;28;20077;-78
2021/03/20 08:31:48;;;;;;;7.60;3.60;;;;;;;;;;4993692;28;20030;-82
2021/03/20 08:34:15;;;;;;;7.93;3.30;;;;;;;;;;4993688;28;20042;-77
2021/03/20 08:36:41;;;;;;;8.23;3.70;;;;;;;;;;4993229;28;20061;-77
2021/03/20 08:39:28;;;;;;;6.35;3.45;;;;;;;;;;4993340;28;20030;-78
2021/03/20 08:42:15;;;;;;;7.93;3.85;;;;;;;;;;4994198;28;20034;-80
2021/03/20 08:44:55;;;;;;;10.27;3.85;;;;;;;;;;4955322;28;20041;-85
2021/03/20 08:47:26;;;;;;;6.72;3.42;;;;;;;;;;4983054;28;20035;-85
2021/03/20 08:50:04;;;;;;;7.45;4.00;;;;;;;;;;4974932;28;20061;-81
2021/03/20 08:52:47;;;;;;;7.78;4.13;;;;;;;;;;4973624;28;20065;-84
2021/03/20 08:55:13;;;;;;;7.75;3.97;;;;;;;;;;4973811;28;20392;-82
2021/03/20 08:57:45;;;;;;;10.25;3.70;;;;;;;;;;4973586;28;20476;-81
2021/03/20 09:00:20;;;;;;;8.85;3.65;;;;;;;;;;4977085;28;20035;-82
2021/03/20 09:02:49;;;;;;;10.07;4.25;;;;;;;;;;4978423;28;20023;-85
2021/03/20 09:05:18;;;;;;;9.35;4.20;;;;;;;;;;4978407;28;20502;-89
2021/03/20 09:07:50;;;;;;;8.73;3.92;;;;;;;;;;4979103;28;20035;-89
2021/03/20 09:10:19;;;;;;;8.50;3.80;;;;;;;;;;4977602;28;20125;-85
2021/03/20 09:12:48;;;;;;;8.38;4.38;;;;;;;;;;4978533;28;20039;-90
2021/03/20 09:15:24;;;;;;;7.38;3.72;;;;;;;;;;4979557;28;20061;-86
2021/03/20 09:17:52;;;;;;;10.10;4.47;;;;;;;;;;4980852;28;20090;-85
2021/03/20 09:20:36;;;;;;;9.07;3.85;;;;;;;;;;4977127;28;20031;-86
2021/03/20 09:23:03;;;;;;;7.32;4.05;;;;;;;;;;4977723;28;20034;-86
2021/03/20 09:25:37;;;;;;;9.60;4.28;;;;;;;;;;4978280;28;20027;-87
2021/03/20 09:28:13;;;;;;;11.77;4.45;;;;;;;;;;4976917;28;20475;-83
2021/03/20 09:30:42;;;;;;;7.95;3.75;;;;;;;;;;4977697;28;20122;-83
2021/03/20 09:33:32;;;;;;;7.38;3.58;;;;;;;;;;4977461;28;20058;-83
2021/03/20 09:36:00;;;;;;;6.90;3.85;;;;;;;;;;4977092;28;20049;-83
2021/03/20 09:38:35;;;;;;;7.90;4.03;;;;;;;;;;4977387;28;20027;-87
2021/03/20 09:41:08;;;;;;;6.40;3.15;;;;;;;;;;4977772;28;20392;-87
2021/03/20 09:43:34;;;;;;;6.13;3.35;;;;;;;;;;4978884;28;20034;-88
2021/03/20 09:46:19;;;;;;;6.70;3.70;;;;;;;;;;4977422;28;20027;-86
2021/03/20 09:48:45;;;;;;;11.05;3.63;;;;;;;;;;4978050;28;20081;-84
2021/03/20 09:51:30;;;;;;;10.40;3.90;;;;;;;;;;4977196;28;20476;-84
2021/03/20 09:53:56;;;;;;;9.35;3.75;;;;;;;;;;4977023;28;20038;-84
2021/03/20 09:56:26;;;;;;;8.82;3.65;;;;;;;;;;4978068;28;20023;-84
2021/03/20 09:58:53;;;;;;;9.20;3.70;;;;;;;;;;4981546;28;20034;-85
2021/03/20 10:01:19;;;;;;;7.22;3.38;;;;;;;;;;4990706;28;20439;-85
2021/03/20 10:03:53;;;;;;;7.47;3.22;;;;;;;;;;4976145;28;20480;-85
2021/03/20 10:06:19;;;;;;;8.32;3.83;;;;;;;;;;4991700;28;20026;-84
2021/03/20 10:08:59;;;;;;;8.07;2.88;;;;;;;;;;4996350;28;20109;-84
2021/03/20 10:11:39;;;;;;;7.88;3.65;;;;;;;;;;4988365;28;20058;-83
2021/03/20 10:14:24;;;;;;;12.32;3.95;;;;;;;;;;4984419;28;20042;-82
2021/03/20 10:17:08;;;;;;;8.80;3.90;;;;;;;;;;4992260;28;20041;-81
2021/03/20 10:19:36;;;;;;;7.03;3.40;;;;;;;;;;4986367;28;20030;-82
2021/03/20 10:22:06;;;;;;;14.55;4.45;;;;;;;;;;4984210;28;20048;-82
2021/03/20 10:24:33;;;;;;;8.40;3.50;;;;;;;;;;4985421;28;20105;-83
2021/03/20 10:26:59;;;;;;;9.45;3.78;;;;;;;;;;4981027;28;20031;-83
2021/03/20 10:29:30;;;;;;;9.80;3.65;;;;;;;;;;4986889;28;20034;-82
2021/03/20 10:32:02;;;;;;;6.78;3.33;;;;;;;;;;4995976;28;20022;-82
2021/03/20 10:34:28;;;;;;;10.82;4.20;;;;;;;;;;4995972;28;20109;-82
2021/03/20 10:37:08;;;;;;;9.98;4.20;;;;;;;;;;4976865;28;20370;-81
2021/03/20 10:39:36;;;;;;;8.35;3.67;;;;;;;;;;4975646;28;20435;-80
2021/03/20 10:42:04;;;;;;;13.80;7.28;;;;;;;;;;4976074;28;20118;-82
2021/03/20 10:44:38;;;;;;;8.13;3.95;;;;;;;;;;4994102;28;20383;-80
2021/03/20 10:47:04;;;;;;;9.93;3.78;;;;;;;;;;4996757;28;20056;-82
2021/03/20 10:49:34;;;;;;;6.50;3.38;;;;;;;;;;4995344;28;20026;-81
2021/03/20 10:52:00;;;;;;;8.93;4.05;;;;;;;;;;4996044;28;20406;-80
2021/03/20 10:54:34;;;;;;;9.55;3.67;;;;;;;;;;4996891;28;20027;-81
2021/03/20 10:57:21;;;;;;;6.82;3.47;;;;;;;;;;4995484;28;20038;-81
2021/03/20 10:59:48;;;;;;;8.90;3.05;;;;;;;;;;4995591;28;20014;-80
2021/03/20 11:02:20;;;;;;;8.60;3.38;;;;;;;;;;4995199;28;20034;-83
2021/03/20 11:04:47;;;;;;;13.20;4.93;;;;;;;;;;4996680;28;20136;-83
2021/03/20 11:07:16;;;;;;;17.75;4.47;;;;;;;;;;4996434;28;20041;-80
2021/03/20 11:09:42;;;;;;;10.65;3.90;;;;;;;;;;4994914;28;20027;-82
2021/03/20 11:12:28;;;;;;;9.98;3.80;;;;;;;;;;4996884;28;20141;-84
2021/03/20 11:14:58;;;;;;;12.18;4.50;;;;;;;;;;4995033;28;20369;-84
2021/03/20 11:17:26;;;;;;;8.40;4.20;;;;;;;;;;4996181;28;20030;-84
2021/03/20 11:20:00;;;;;;;7.60;3.83;;;;;;;;;;4994939;28;20034;-84
2021/03/20 11:22:33;;;;;;;9.20;3.83;;;;;;;;;;4994153;28;20574;-83
2021/03/20 11:25:03;;;;;;;11.18;4.13;;;;;;;;;;4994969;28;20386;-84
2021/03/20 11:27:31;;;;;;;9.35;4.55;;;;;;;;;;4995969;28;20030;-84
2021/03/20 11:29:59;;;;;;;10.77;3.80;;;;;;;;;;4996497;28;20034;-83
2021/03/20 11:32:36;;;;;;;6.97;3.55;;;;;;;;;;4993856;28;20113;-83
2021/03/20 11:35:06;;;;;;;7.07;3.65;;;;;;;;;;4993916;28;20368;-84
2021/03/20 11:37:33;;;;;;;8.35;3.83;;;;;;;;;;4995066;28;20553;-83
2021/03/20 11:40:01;;;;;;;7.20;3.60;;;;;;;;;;4994420;28;20122;-84
2021/03/20 11:42:36;;;;;;;6.20;2.95;;;;;;;;;;4995703;28;20026;-83
2021/03/20 11:45:06;;;;;;;8.38;3.72;;;;;;;;;;4994420;28;20041;-83
2021/03/20 11:47:33;;;;;;;7.13;3.17;;;;;;;;;;4996147;28;20026;-84
2021/03/20 11:50:00;;;;;;;7.97;3.45;;;;;;;;;;4994186;28;20555;-82
2021/03/20 11:52:31;;;;;;;6.38;3.05;;;;;;;;;;4995339;28;20038;-85
2021/03/20 11:55:05;;;;;;;7.47;3.15;;;;;;;;;;4993611;28;20034;-85
2021/03/20 11:57:37;;;;;;;5.90;2.80;;;;;;;;;;4993494;28;20037;-85
2021/03/20 12:00:22;;;;;;;8.77;3.65;;;;;;;;;;4994126;28;20026;-85
2021/03/20 12:02:48;;;;;;;6.38;3.33;;;;;;;;;;4993747;28;20125;-84
2021/03/20 12:05:15;;;;;;;8.57;3.50;;;;;;;;;;4994168;28;20034;-84
2021/03/20 12:07:42;;;;;;;9.13;3.00;;;;;;;;;;4995867;28;20030;-89
2021/03/20 12:10:25;;;;;;;8.80;3.17;;;;;;;;;;4994533;28;20053;-84
2021/03/20 12:12:53;;;;;;;7.57;2.73;;;;;;;;;;4993704;28;20487;-85
2021/03/20 12:15:39;;;;;;;9.48;3.13;;;;;;;;;;4995593;28;20021;-87
2021/03/20 12:18:13;;;;;;;10.48;2.97;;;;;;;;;;4994008;28;20037;-85
2021/03/20 12:20:41;;;;;;;;;;;;;;;;;;4994126;28;20449;-85
2021/03/20 12:23:12;;;;;;;6.15;2.60;;;;;;;;;;4993475;28;20355;-86
2021/03/20 12:25:46;;;;;;;6.22;2.83;;;;;;;;;;4993566;28;20117;-84
2021/03/20 12:28:15;;;;;;;6.63;2.38;;;;;;;;;;4993960;28;20026;-87
2021/03/20 12:30:42;;;;;;;7.28;2.75;;;;;;;;;;4993867;28;20030;-88
2021/03/20 12:33:16;;;;;;;5.80;2.70;;;;;;;;;;4994485;28;20038;-86
2021/03/20 12:35:43;;;;;;;6.25;2.65;;;;;;;;;;4997758;28;20391;-87
2021/03/20 12:38:12;;;;;;;5.88;2.85;;;;;;;;;;4997829;28;20084;-87
2021/03/20 12:40:39;;;;;;;6.15;2.63;;;;;;;;;;5004596;28;20431;-85
2021/03/20 12:43:06;;;;;;;6.90;2.83;;;;;;;;;;5000131;28;20360;-88
2021/03/20 12:45:34;;;;;;;7.47;2.85;;;;;;;;;;4997660;28;20022;-85
2021/03/20 12:48:00;;;;;;;7.13;3.55;;;;;;;;;;4996972;28;20030;-88
2021/03/20 12:50:26;;;;;;;8.05;3.05;;;;;;;;;;4996670;28;20026;-84
2021/03/20 12:52:53;;;;;;;7.80;2.78;;;;;;;;;;4997145;28;20038;-87
2021/03/20 12:55:19;;;;;;;7.05;2.88;;;;;;;;;;4997161;28;20471;-85
2021/03/20 12:57:45;;;;;;;6.95;2.90;;;;;;;;;;4996723;28;20030;-85
2021/03/20 13:00:16;;;;;;;6.32;2.97;;;;;;;;;;4997063;28;20054;-86
2021/03/20 13:02:43;;;;;;;5.80;2.80;;;;;;;;;;4997688;28;20058;-88
2021/03/20 13:05:11;;;;;;;7.50;2.75;;;;;;;;;;4997745;28;20387;-87
2021/03/20 13:07:37;;;;;;;6.85;2.67;;;;;;;;;;4997111;28;20463;-82
2021/03/20 13:10:04;;;;;;;8.35;2.70;;;;;;;;;;4998884;28;20116;-81
2021/03/20 13:12:30;;;;;;;7.13;2.83;;;;;;;;;;4998487;28;20064;-79
2021/03/20 13:14:56;;;;;;;4.75;2.35;;;;;;;;;;4999230;28;20033;-78
2021/03/20 13:17:22;;;;;;;5.95;2.50;;;;;;;;;;4996891;28;20476;-78
2021/03/20 13:19:49;;;;;;;7.60;2.70;;;;;;;;;;4997143;28;20026;-78
2021/03/20 13:22:15;;;;;;;7.35;2.53;;;;;;;;;;4996318;28;20076;-78
2021/03/20 13:24:41;;;;;;;7.90;2.50;;;;;;;;;;4996912;28;20498;-79
2021/03/20 13:27:08;;;;;;;6.95;2.70;;;;;;;;;;4997185;28;20026;-79
2021/03/20 13:29:34;;;;;;;6.03;2.60;;;;;;;;;;4998380;28;20022;-79
2021/03/20 13:32:00;;;;;;;14.70;2.65;;;;;;;;;;4998860;28;20101;-79
2021/03/20 13:34:27;;;;;;;5.82;1.95;;;;;;;;;;4996370;28;20464;-79
2021/03/20 13:36:53;;;;;;;6.13;2.78;;;;;;;;;;4996373;28;20530;-80
2021/03/20 13:39:19;;;;;;;5.38;2.25;;;;;;;;;;4997662;28;20510;-80
2021/03/20 13:41:45;;;;;;;7.82;2.30;;;;;;;;;;4997142;28;20022;-80
2021/03/20 13:44:11;;;;;;;12.57;2.75;;;;;;;;;;4997467;28;20054;-79
2021/03/20 13:46:38;;;;;;;5.38;1.95;;;;;;;;;;4995697;28;20057;-81
2021/03/20 13:49:04;;;;;;;8.23;2.50;;;;;;;;;;4996873;28;20026;-79
2021/03/20 13:51:31;;;;;;;6.63;2.42;;;;;;;;;;4998317;28;20498;-77
2021/03/20 13:53:57;;;;;;;4.47;2.08;;;;;;;;;;4996037;28;20034;-87
2021/03/20 13:56:23;;;;;;;5.07;2.30;;;;;;;;;;4997497;28;20097;-81
2021/03/20 13:58:50;;;;;;;10.13;2.95;;;;;;;;;;4999578;28;20474;-85
2021/03/20 14:01:16;;;;;;;9.07;2.70;;;;;;;;;;5012135;28;20475;-81
2021/03/20 14:03:42;;;;;;;6.00;2.65;;;;;;;;;;5002491;28;20078;-80
2021/03/20 14:06:08;;;;;;;10.13;3.70;;;;;;;;;;5012180;28;20105;-81
2021/03/20 14:08:34;;;;;;;4.43;2.35;;;;;;;;;;5019594;28;20018;-79
2021/03/20 14:11:02;;;;;;;33.33;5.30;;;;;;;;;;5016976;28;20054;-86
2021/03/20 14:13:29;;;;;;;7.90;2.90;;;;;;;;;;5015026;28;20038;-86
2021/03/20 14:15:55;;;;;;;9.23;3.13;;;;;;;;;;5003444;28;20096;-86
2021/03/20 14:18:23;;;;;;;8.30;2.50;;;;;;;;;;4995550;28;20026;-83
2021/03/20 14:20:50;;;;;;;5.60;2.60;;;;;;;;;;4995627;28;20073;-85
2021/03/20 14:23:18;;;;;;;7.40;2.63;;;;;;;;;;4995982;28;20030;-82
2021/03/20 14:25:44;;;;;;;7.75;2.78;;;;;;;;;;4995160;28;20124;-84
2021/03/20 14:28:11;;;;;;;5.63;2.25;;;;;;;;;;4995901;28;20039;-82
2021/03/20 14:30:41;;;;;;;3.78;2.08;;;;;;;;;;4997373;28;20022;-85
2021/03/20 14:33:08;;;;;;;6.57;2.80;;;;;;;;;;5008506;28;20038;-85
2021/03/20 14:35:34;;;;;;;7.80;2.78;;;;;;;;;;5016244;28;20072;-86
2021/03/20 14:38:00;;;;;;;5.00;2.47;;;;;;;;;;5016339;28;20088;-84
2021/03/20 14:40:28;;;;;;;9.68;2.53;;;;;;;;;;5016403;28;20033;-85
2021/03/20 14:42:54;;;;;;;14.93;2.80;;;;;;;;;;5014281;28;20030;-84
2021/03/20 14:45:21;;;;;;;6.28;2.60;;;;;;;;;;5016105;28;20030;-86
2021/03/20 14:47:47;;;;;;;11.40;2.85;;;;;;;;;;5014687;28;20076;-85
2021/03/20 14:50:16;;;;;;;5.22;2.90;;;;;;;;;;5015208;28;20113;-85
2021/03/20 14:52:42;;;;;;;4.68;2.40;;;;;;;;;;5014613;28;20032;-82
2021/03/20 14:55:09;;;;;;;6.28;2.33;;;;;;;;;;5015879;28;20022;-81
2021/03/20 14:57:36;;;;;;;5.25;2.35;;;;;;;;;;5015983;28;20041;-79
2021/03/20 15:00:02;;;;;;;6.45;2.25;;;;;;;;;;5015013;28;20483;-83